sensor_id;sensor_type;location;lat;lon;timestamp;pressure;altitude;pressure_sealevel;temperature;humidity
44198;BME280;30157;55.512;37.764;2023-07-29T00:00:41;98893.56;;;16.03;100.00
44198;BME280;30157;55.512;37.764;2023-07-29T00:03:08;98926.00;;;16.21;100.00
44198;BME280;30157;55.512;37.764;2023-07-29T00:05:34;98961.00;;;16.39;100.00
44198;BME280;30157;55.512;37.764;2023-07-29T00:08:00;98958.31;;;16.41;100.00
44198;BME280;30157;55.512;37.764;2023-07-29T00:10:26;98885.09;;;15.98;100.00
44198;BME280;30157;55.512;37.764;2023-07-29T00:12:52;98954.13;;;16.37;100.00
44198;BME280;30157;55.512;37.764;2023-07-29T00:15:18;98921.72;;;16.19;100.00
44198;BME280;30157;55.512;37.764;2023-07-29T00:17:44;98854.56;;;15.76;100.00
44198;BME280;30157;55.512;37.764;2023-07-29T00:20:09;98937.06;;;16.28;100.00
44198;BME280;30157;55.512;37.764;2023-07-29T00:22:35;98951.31;;;16.41;100.00
44198;BME280;30157;55.512;37.764;2023-07-29T00:25:01;98956.63;;;16.40;100.00
44198;BME280;30157;55.512;37.764;2023-07-29T00:27:29;98958.38;;;16.39;100.00
44198;BME280;30157;55.512;37.764;2023-07-29T00:29:55;98782.97;;;15.36;100.00
44198;BME280;30157;55.512;37.764;2023-07-29T00:32:20;98907.25;;;16.10;100.00
44198;BME280;30157;55.512;37.764;2023-07-29T00:34:46;98830.44;;;15.68;100.00
44198;BME280;30157;55.512;37.764;2023-07-29T00:37:12;98845.16;;;15.71;100.00
44198;BME280;30157;55.512;37.764;2023-07-29T00:39:38;98897.31;;;15.98;100.00
44198;BME280;30157;55.512;37.764;2023-07-29T00:42:04;98912.81;;;16.02;100.00
44198;BME280;30157;55.512;37.764;2023-07-29T00:44:30;98939.84;;;16.23;100.00
44198;BME280;30157;55.512;37.764;2023-07-29T00:47:04;98950.53;;;16.19;100.00
44198;BME280;30157;55.512;37.764;2023-07-29T00:49:32;98943.84;;;16.11;100.00
44198;BME280;30157;55.512;37.764;2023-07-29T00:51:58;98949.47;;;16.23;100.00
44198;BME280;30157;55.512;37.764;2023-07-29T00:54:24;98906.03;;;15.98;100.00
44198;BME280;30157;55.512;37.764;2023-07-29T00:56:50;98933.09;;;16.18;100.00
44198;BME280;30157;55.512;37.764;2023-07-29T00:59:16;98931.16;;;16.23;100.00
44198;BME280;30157;55.512;37.764;2023-07-29T01:01:42;98846.72;;;15.76;100.00
44198;BME280;30157;55.512;37.764;2023-07-29T01:04:08;98935.41;;;16.25;100.00
44198;BME280;30157;55.512;37.764;2023-07-29T01:06:58;98885.34;;;15.92;100.00
44198;BME280;30157;55.512;37.764;2023-07-29T01:09:40;98880.47;;;15.83;100.00
44198;BME280;30157;55.512;37.764;2023-07-29T01:17:29;98928.78;;;16.17;100.00
44198;BME280;30157;55.512;37.764;2023-07-29T01:20:07;98939.47;;;16.12;100.00
44198;BME280;30157;55.512;37.764;2023-07-29T01:22:35;98930.69;;;16.13;100.00
44198;BME280;30157;55.512;37.764;2023-07-29T01:25:01;98901.97;;;16.11;100.00
44198;BME280;30157;55.512;37.764;2023-07-29T01:27:29;98876.19;;;16.02;100.00
44198;BME280;30157;55.512;37.764;2023-07-29T01:29:57;98883.91;;;16.05;100.00
44198;BME280;30157;55.512;37.764;2023-07-29T01:33:14;98925.19;;;16.19;100.00
44198;BME280;30157;55.512;37.764;2023-07-29T01:35:26;98889.28;;;16.02;100.00
44198;BME280;30157;55.512;37.764;2023-07-29T01:37:55;98897.13;;;16.02;100.00
44198;BME280;30157;55.512;37.764;2023-07-29T01:40:27;98912.63;;;16.07;100.00
44198;BME280;30157;55.512;37.764;2023-07-29T01:42:53;98913.28;;;16.12;100.00
44198;BME280;30157;55.512;37.764;2023-07-29T01:45:23;98873.28;;;15.88;100.00
44198;BME280;30157;55.512;37.764;2023-07-29T01:47:50;98891.09;;;16.00;100.00
44198;BME280;30157;55.512;37.764;2023-07-29T01:50:16;98827.69;;;15.51;100.00
44198;BME280;30157;55.512;37.764;2023-07-29T01:52:41;98927.41;;;16.08;100.00
44198;BME280;30157;55.512;37.764;2023-07-29T01:55:07;98914.25;;;15.89;100.00
44198;BME280;30157;55.512;37.764;2023-07-29T01:57:33;98957.13;;;16.07;100.00
44198;BME280;30157;55.512;37.764;2023-07-29T01:59:59;98926.66;;;15.84;100.00
44198;BME280;30157;55.512;37.764;2023-07-29T02:02:25;98926.78;;;15.81;100.00
44198;BME280;30157;55.512;37.764;2023-07-29T02:04:50;98978.97;;;16.06;100.00
44198;BME280;30157;55.512;37.764;2023-07-29T02:07:21;98971.03;;;16.07;100.00
44198;BME280;30157;55.512;37.764;2023-07-29T02:09:46;98938.63;;;15.89;100.00
44198;BME280;30157;55.512;37.764;2023-07-29T02:12:12;98932.91;;;15.79;99.61
44198;BME280;30157;55.512;37.764;2023-07-29T02:14:38;98926.09;;;15.75;100.00
44198;BME280;30157;55.512;37.764;2023-07-29T02:17:04;98965.22;;;16.01;100.00
44198;BME280;30157;55.512;37.764;2023-07-29T02:19:50;98907.09;;;15.70;100.00
44198;BME280;30157;55.512;37.764;2023-07-29T02:22:17;98887.78;;;15.52;100.00
44198;BME280;30157;55.512;37.764;2023-07-29T02:24:44;98903.88;;;15.63;100.00
44198;BME280;30157;55.512;37.764;2023-07-29T02:27:11;98948.94;;;15.94;100.00
44198;BME280;30157;55.512;37.764;2023-07-29T02:29:37;98951.66;;;15.91;99.63
44198;BME280;30157;55.512;37.764;2023-07-29T02:32:03;98922.94;;;15.67;98.45
44198;BME280;30157;55.512;37.764;2023-07-29T02:34:29;98959.94;;;15.80;98.05
44198;BME280;30157;55.512;37.764;2023-07-29T02:36:56;98949.78;;;15.71;98.90
44198;BME280;30157;55.512;37.764;2023-07-29T02:39:21;98957.03;;;15.64;99.54
44198;BME280;30157;55.512;37.764;2023-07-29T02:41:49;98922.13;;;15.43;100.00
44198;BME280;30157;55.512;37.764;2023-07-29T02:44:15;98862.34;;;15.11;100.00
44198;BME280;30157;55.512;37.764;2023-07-29T02:46:42;98938.19;;;15.56;99.78
44198;BME280;30157;55.512;37.764;2023-07-29T02:49:08;98925.47;;;15.46;100.00
44198;BME280;30157;55.512;37.764;2023-07-29T02:51:34;98932.53;;;15.44;100.00
44198;BME280;30157;55.512;37.764;2023-07-29T02:54:01;98927.47;;;15.40;100.00
44198;BME280;30157;55.512;37.764;2023-07-29T02:56:27;98819.03;;;14.82;100.00
44198;BME280;30157;55.512;37.764;2023-07-29T02:58:53;98880.97;;;15.26;100.00
44198;BME280;30157;55.512;37.764;2023-07-29T03:01:19;98886.13;;;15.27;100.00
44198;BME280;30157;55.512;37.764;2023-07-29T03:03:44;98917.88;;;15.62;100.00
44198;BME280;30157;55.512;37.764;2023-07-29T03:06:13;98892.06;;;15.53;100.00
44198;BME280;30157;55.512;37.764;2023-07-29T03:08:39;98911.50;;;15.70;100.00
44198;BME280;30157;55.512;37.764;2023-07-29T03:11:15;98876.31;;;15.55;100.00
44198;BME280;30157;55.512;37.764;2023-07-29T03:13:42;98904.03;;;15.83;100.00
44198;BME280;30157;55.512;37.764;2023-07-29T03:16:10;98877.16;;;15.77;100.00
44198;BME280;30157;55.512;37.764;2023-07-29T03:18:38;98818.59;;;15.39;100.00
44198;BME280;30157;55.512;37.764;2023-07-29T03:21:04;98862.56;;;15.72;100.00
44198;BME280;30157;55.512;37.764;2023-07-29T03:23:32;98831.75;;;15.58;100.00
44198;BME280;30157;55.512;37.764;2023-07-29T03:25:59;98863.41;;;15.72;100.00
44198;BME280;30157;55.512;37.764;2023-07-29T03:28:28;98804.84;;;15.34;99.73
44198;BME280;30157;55.512;37.764;2023-07-29T03:30:57;98903.25;;;15.81;98.87
44198;BME280;30157;55.512;37.764;2023-07-29T03:33:24;98884.94;;;15.79;99.90
44198;BME280;30157;55.512;37.764;2023-07-29T03:35:51;98856.56;;;15.70;100.00
44198;BME280;30157;55.512;37.764;2023-07-29T03:38:16;98865.84;;;15.77;100.00
44198;BME280;30157;55.512;37.764;2023-07-29T03:40:43;98839.25;;;15.67;98.77
44198;BME280;30157;55.512;37.764;2023-07-29T03:43:08;98773.59;;;15.31;99.27
44198;BME280;30157;55.512;37.764;2023-07-29T03:45:35;98867.00;;;15.92;98.95
44198;BME280;30157;55.512;37.764;2023-07-29T03:48:02;98847.25;;;15.85;99.17
44198;BME280;30157;55.512;37.764;2023-07-29T03:50:29;98829.22;;;15.77;98.59
44198;BME280;30157;55.512;37.764;2023-07-29T03:52:55;98861.56;;;15.96;98.21
44198;BME280;30157;55.512;37.764;2023-07-29T03:55:21;98842.81;;;15.87;97.66
44198;BME280;30157;55.512;37.764;2023-07-29T03:57:47;98740.78;;;15.23;97.62
44198;BME280;30157;55.512;37.764;2023-07-29T04:00:13;98820.13;;;15.65;97.92
44198;BME280;30157;55.512;37.764;2023-07-29T04:02:42;98826.94;;;15.69;97.49
44198;BME280;30157;55.512;37.764;2023-07-29T04:05:09;98837.25;;;15.72;97.45
44198;BME280;30157;55.512;37.764;2023-07-29T04:07:36;98775.00;;;15.39;97.25
44198;BME280;30157;55.512;37.764;2023-07-29T04:10:02;98828.78;;;15.67;96.84
44198;BME280;30157;55.512;37.764;2023-07-29T04:12:30;98857.47;;;15.91;96.44
44198;BME280;30157;55.512;37.764;2023-07-29T04:14:56;98817.94;;;15.76;97.14
44198;BME280;30157;55.512;37.764;2023-07-29T04:17:22;98789.59;;;15.66;95.06
44198;BME280;30157;55.512;37.764;2023-07-29T04:19:48;98846.59;;;16.00;94.90
44198;BME280;30157;55.512;37.764;2023-07-29T04:22:16;98849.28;;;15.99;93.97
44198;BME280;30157;55.512;37.764;2023-07-29T04:24:41;98841.09;;;15.86;94.88
44198;BME280;30157;55.512;37.764;2023-07-29T04:27:07;98848.38;;;16.00;93.88
44198;BME280;30157;55.512;37.764;2023-07-29T04:29:33;98844.25;;;15.94;94.61
44198;BME280;30157;55.512;37.764;2023-07-29T04:32:02;98776.13;;;15.54;94.66
44198;BME280;30157;55.512;37.764;2023-07-29T04:34:28;98801.75;;;15.67;94.44
44198;BME280;30157;55.512;37.764;2023-07-29T04:36:54;98737.19;;;15.26;94.08
44198;BME280;30157;55.512;37.764;2023-07-29T04:39:19;98841.34;;;15.79;94.49
44198;BME280;30157;55.512;37.764;2023-07-29T04:41:45;98729.06;;;15.11;94.14
44198;BME280;30157;55.512;37.764;2023-07-29T04:44:11;98792.13;;;15.46;94.52
44198;BME280;30157;55.512;37.764;2023-07-29T04:46:37;98862.81;;;15.88;94.68
44198;BME280;30157;55.512;37.764;2023-07-29T04:49:04;98857.47;;;15.91;95.33
44198;BME280;30157;55.512;37.764;2023-07-29T04:51:30;98817.75;;;15.81;94.71
44198;BME280;30157;55.512;37.764;2023-07-29T04:53:58;98820.81;;;15.91;94.88
44198;BME280;30157;55.512;37.764;2023-07-29T04:56:24;98839.63;;;16.01;94.34
44198;BME280;30157;55.512;37.764;2023-07-29T04:58:49;98847.25;;;16.05;94.30
44198;BME280;30157;55.512;37.764;2023-07-29T05:01:15;98818.94;;;15.94;92.31
44198;BME280;30157;55.512;37.764;2023-07-29T05:03:41;98831.56;;;16.05;92.58
44198;BME280;30157;55.512;37.764;2023-07-29T05:06:07;98834.56;;;15.96;92.39
44198;BME280;30157;55.512;37.764;2023-07-29T05:08:33;98807.34;;;15.79;92.96
44198;BME280;30157;55.512;37.764;2023-07-29T05:11:00;98806.25;;;15.85;93.23
44198;BME280;30157;55.512;37.764;2023-07-29T05:13:26;98843.75;;;16.06;92.85
44198;BME280;30157;55.512;37.764;2023-07-29T05:15:51;98843.34;;;16.16;92.70
44198;BME280;30157;55.512;37.764;2023-07-29T05:18:18;98836.25;;;16.18;92.96
44198;BME280;30157;55.512;37.764;2023-07-29T05:20:44;98722.19;;;15.52;92.72
44198;BME280;30157;55.512;37.764;2023-07-29T05:23:10;98827.56;;;16.17;92.07
44198;BME280;30157;55.512;37.764;2023-07-29T05:25:36;98828.47;;;16.16;92.53
44198;BME280;30157;55.512;37.764;2023-07-29T05:28:02;98813.69;;;16.15;93.01
44198;BME280;30157;55.512;37.764;2023-07-29T05:30:29;98753.19;;;15.82;92.72
44198;BME280;30157;55.512;37.764;2023-07-29T05:32:57;98830.22;;;16.36;93.20
44198;BME280;30157;55.512;37.764;2023-07-29T05:35:24;98823.84;;;16.42;92.64
44198;BME280;30157;55.512;37.764;2023-07-29T05:37:50;98776.19;;;16.15;91.45
44198;BME280;30157;55.512;37.764;2023-07-29T05:40:16;98741.69;;;15.86;91.29
44198;BME280;30157;55.512;37.764;2023-07-29T05:42:42;98821.00;;;16.27;91.88
44198;BME280;30157;55.512;37.764;2023-07-29T05:45:09;98796.34;;;16.12;91.55
44198;BME280;30157;55.512;37.764;2023-07-29T05:47:36;98847.72;;;16.36;91.48
44198;BME280;30157;55.512;37.764;2023-07-29T05:50:03;98863.22;;;16.40;91.62
44198;BME280;30157;55.512;37.764;2023-07-29T05:52:31;98859.28;;;16.30;91.99
44198;BME280;30157;55.512;37.764;2023-07-29T05:54:57;98780.09;;;15.85;92.20
44198;BME280;30157;55.512;37.764;2023-07-29T05:57:24;98826.19;;;16.08;91.84
44198;BME280;30157;55.512;37.764;2023-07-29T05:59:49;98796.50;;;15.89;91.91
44198;BME280;30157;55.512;37.764;2023-07-29T06:02:15;98816.25;;;15.96;92.63
44198;BME280;30157;55.512;37.764;2023-07-29T06:04:41;98789.94;;;15.78;93.02
44198;BME280;30157;55.512;37.764;2023-07-29T06:07:07;98710.63;;;15.37;92.40
44198;BME280;30157;55.512;37.764;2023-07-29T06:09:34;98875.94;;;16.29;93.03
44198;BME280;30157;55.512;37.764;2023-07-29T06:12:00;98890.69;;;16.30;93.24
44198;BME280;30157;55.512;37.764;2023-07-29T06:14:26;98866.09;;;16.13;92.76
44198;BME280;30157;55.512;37.764;2023-07-29T06:16:52;98916.28;;;16.23;92.42
44198;BME280;30157;55.512;37.764;2023-07-29T06:19:19;98785.22;;;15.45;92.70
44198;BME280;30157;55.512;37.764;2023-07-29T06:21:45;98881.28;;;16.05;92.60
44198;BME280;30157;55.512;37.764;2023-07-29T06:24:12;98907.84;;;16.17;92.63
44198;BME280;30157;55.512;37.764;2023-07-29T06:26:39;98820.25;;;15.62;92.42
44198;BME280;30157;55.512;37.764;2023-07-29T06:29:05;98814.50;;;15.54;93.02
44198;BME280;30157;55.512;37.764;2023-07-29T06:31:30;98917.69;;;16.11;93.24
44198;BME280;30157;55.512;37.764;2023-07-29T06:33:58;98808.47;;;15.52;93.43
44198;BME280;30157;55.512;37.764;2023-07-29T06:36:24;98873.66;;;16.01;93.39
44198;BME280;30157;55.512;37.764;2023-07-29T06:38:50;98898.50;;;16.11;92.91
44198;BME280;30157;55.512;37.764;2023-07-29T06:41:16;98783.75;;;15.38;92.46
44198;BME280;30157;55.512;37.764;2023-07-29T06:43:42;98896.19;;;16.03;93.25
44198;BME280;30157;55.512;37.764;2023-07-29T06:46:08;98789.94;;;15.36;93.39
44198;BME280;30157;55.512;37.764;2023-07-29T06:48:34;98886.06;;;15.95;93.82
44198;BME280;30157;55.512;37.764;2023-07-29T06:51:00;98903.78;;;16.09;93.47
44198;BME280;30157;55.512;37.764;2023-07-29T06:53:27;98837.59;;;15.65;93.16
44198;BME280;30157;55.512;37.764;2023-07-29T06:55:53;98901.97;;;16.11;93.26
44198;BME280;30157;55.512;37.764;2023-07-29T06:58:19;98875.66;;;15.94;93.44
44198;BME280;30157;55.512;37.764;2023-07-29T07:00:45;98871.88;;;16.01;93.02
44198;BME280;30157;55.512;37.764;2023-07-29T07:03:11;98899.34;;;16.11;93.39
44198;BME280;30157;55.512;37.764;2023-07-29T07:05:36;98871.41;;;15.91;93.60
44198;BME280;30157;55.512;37.764;2023-07-29T07:08:02;98895.09;;;16.09;93.51
44198;BME280;30157;55.512;37.764;2023-07-29T07:10:28;98896.53;;;16.16;94.25
44198;BME280;30157;55.512;37.764;2023-07-29T07:12:54;98855.75;;;15.90;94.05
44198;BME280;30157;55.512;37.764;2023-07-29T07:15:20;98808.63;;;15.69;94.03
44198;BME280;30157;55.512;37.764;2023-07-29T07:17:45;98878.47;;;16.10;93.56
44198;BME280;30157;55.512;37.764;2023-07-29T07:20:11;98886.91;;;16.17;93.43
44198;BME280;30157;55.512;37.764;2023-07-29T07:22:37;98896.28;;;16.22;93.42
44198;BME280;30157;55.512;37.764;2023-07-29T07:25:03;98899.94;;;16.18;93.71
44198;BME280;30157;55.512;37.764;2023-07-29T07:27:29;98902.56;;;16.18;93.42
44198;BME280;30157;55.512;37.764;2023-07-29T07:29:55;98819.47;;;15.60;93.33
44198;BME280;30157;55.512;37.764;2023-07-29T07:32:21;98823.91;;;15.58;93.79
44198;BME280;30157;55.512;37.764;2023-07-29T07:34:47;98904.69;;;16.08;93.94
44198;BME280;30157;55.512;37.764;2023-07-29T07:37:12;98866.50;;;15.84;93.98
44198;BME280;30157;55.512;37.764;2023-07-29T07:39:38;98801.88;;;15.43;93.71
44198;BME280;30157;55.512;37.764;2023-07-29T07:42:04;98892.56;;;15.85;93.48
44198;BME280;30157;55.512;37.764;2023-07-29T07:44:30;98892.56;;;15.85;94.20
44198;BME280;30157;55.512;37.764;2023-07-29T07:46:56;98888.25;;;15.84;95.07
44198;BME280;30157;55.512;37.764;2023-07-29T07:49:22;98871.31;;;15.71;95.82
44198;BME280;30157;55.512;37.764;2023-07-29T07:51:48;98923.16;;;16.05;94.90
44198;BME280;30157;55.512;37.764;2023-07-29T07:54:14;98919.88;;;16.00;94.46
44198;BME280;30157;55.512;37.764;2023-07-29T07:56:39;98919.75;;;16.03;94.82
44198;BME280;30157;55.512;37.764;2023-07-29T07:59:05;98925.91;;;16.02;93.99
44198;BME280;30157;55.512;37.764;2023-07-29T08:01:38;98881.47;;;15.78;94.82
44198;BME280;30157;55.512;37.764;2023-07-29T08:04:05;98928.53;;;16.02;94.60
44198;BME280;30157;55.512;37.764;2023-07-29T08:06:31;98849.28;;;15.56;94.54
44198;BME280;30157;55.512;37.764;2023-07-29T08:08:57;98843.94;;;15.59;94.49
44198;BME280;30157;55.512;37.764;2023-07-29T08:11:23;98903.25;;;16.01;93.88
44198;BME280;30157;55.512;37.764;2023-07-29T08:13:49;98924.72;;;16.09;93.86
44198;BME280;30157;55.512;37.764;2023-07-29T08:16:14;98920.34;;;16.10;93.96
44198;BME280;30157;55.512;37.764;2023-07-29T08:18:40;98940.22;;;16.14;93.76
44198;BME280;30157;55.512;37.764;2023-07-29T08:21:06;98932.38;;;16.14;93.58
44198;BME280;30157;55.512;37.764;2023-07-29T08:23:34;98907.06;;;15.94;94.29
44198;BME280;30157;55.512;37.764;2023-07-29T08:26:02;98931.75;;;16.09;95.11
44198;BME280;30157;55.512;37.764;2023-07-29T08:28:39;98922.72;;;16.16;95.58
44198;BME280;30157;55.512;37.764;2023-07-29T08:31:06;98836.72;;;15.64;95.50
44198;BME280;30157;55.512;37.764;2023-07-29T08:33:32;98897.97;;;16.03;95.09
44198;BME280;30157;55.512;37.764;2023-07-29T08:35:59;98907.91;;;15.94;95.32
44198;BME280;30157;55.512;37.764;2023-07-29T08:38:25;98862.81;;;15.66;95.93
44198;BME280;30157;55.512;37.764;2023-07-29T08:43:32;98888.72;;;15.72;95.83
44198;BME280;30157;55.512;37.764;2023-07-29T08:45:59;98849.53;;;15.50;96.11
44198;BME280;30157;55.512;37.764;2023-07-29T08:48:51;98936.38;;;16.02;95.66
44198;BME280;30157;55.512;37.764;2023-07-29T08:51:19;98895.53;;;15.76;95.77
44198;BME280;30157;55.512;37.764;2023-07-29T08:53:46;98906.56;;;15.84;95.66
44198;BME280;30157;55.512;37.764;2023-07-29T08:56:12;98900.63;;;15.79;96.11
44198;BME280;30157;55.512;37.764;2023-07-29T08:58:39;98922.34;;;15.83;95.82
44198;BME280;30157;55.512;37.764;2023-07-29T09:01:05;98942.91;;;15.92;96.47
44198;BME280;30157;55.512;37.764;2023-07-29T09:03:31;98848.25;;;15.38;96.65
44198;BME280;30157;55.512;37.764;2023-07-29T09:05:58;98886.47;;;15.62;96.81
44198;BME280;30157;55.512;37.764;2023-07-29T09:08:26;98926.72;;;15.82;96.28
44198;BME280;30157;55.512;37.764;2023-07-29T09:10:53;98945.56;;;15.90;96.85
44198;BME280;30157;55.512;37.764;2023-07-29T09:13:19;98944.41;;;15.98;96.86
44198;BME280;30157;55.512;37.764;2023-07-29T09:15:46;98916.06;;;15.87;96.44
44198;BME280;30157;55.512;37.764;2023-07-29T09:18:15;98912.78;;;15.82;97.17
44198;BME280;30157;55.512;37.764;2023-07-29T09:20:41;98940.69;;;16.03;97.14
44198;BME280;30157;55.512;37.764;2023-07-29T09:23:09;98922.63;;;15.97;97.38
44198;BME280;30157;55.512;37.764;2023-07-29T09:25:36;98942.25;;;16.07;97.44
44198;BME280;30157;55.512;37.764;2023-07-29T09:28:12;98853.78;;;15.52;97.45
44198;BME280;30157;55.512;37.764;2023-07-29T09:30:39;98930.34;;;16.00;97.62
44198;BME280;30157;55.512;37.764;2023-07-29T09:33:06;98937.00;;;16.07;97.78
44198;BME280;30157;55.512;37.764;2023-07-29T09:35:36;98861.19;;;15.63;98.44
44198;BME280;30157;55.512;37.764;2023-07-29T09:38:02;98931.69;;;16.10;97.93
44198;BME280;30157;55.512;37.764;2023-07-29T09:40:39;98890.09;;;15.82;97.98
44198;BME280;30157;55.512;37.764;2023-07-29T09:43:09;98916.59;;;15.95;98.84
44198;BME280;30157;55.512;37.764;2023-07-29T09:45:36;98924.00;;;16.06;99.67
44198;BME280;30157;55.512;37.764;2023-07-29T09:48:04;98851.78;;;15.59;99.30
44198;BME280;30157;55.512;37.764;2023-07-29T09:50:36;98909.88;;;16.10;99.17
44198;BME280;30157;55.512;37.764;2023-07-29T09:53:02;98915.84;;;16.13;98.01
44198;BME280;30157;55.512;37.764;2023-07-29T09:55:29;98925.31;;;16.16;98.03
44198;BME280;30157;55.512;37.764;2023-07-29T09:57:59;98898.81;;;16.03;98.15
44198;BME280;30157;55.512;37.764;2023-07-29T10:00:28;98942.22;;;16.29;97.87
44198;BME280;30157;55.512;37.764;2023-07-29T10:02:56;98902.59;;;16.17;98.08
44198;BME280;30157;55.512;37.764;2023-07-29T10:05:22;98939.22;;;16.39;97.59
44198;BME280;30157;55.512;37.764;2023-07-29T10:07:49;98911.00;;;16.25;97.32
44198;BME280;30157;55.512;37.764;2023-07-29T10:10:16;98929.28;;;16.26;97.41
44198;BME280;30157;55.512;37.764;2023-07-29T10:12:42;98935.56;;;16.22;96.99
44198;BME280;30157;55.512;37.764;2023-07-29T10:15:09;98915.09;;;16.10;96.95
44198;BME280;30157;55.512;37.764;2023-07-29T10:17:36;98924.28;;;16.00;96.78
44198;BME280;30157;55.512;37.764;2023-07-29T10:20:04;98865.50;;;15.64;97.26
44198;BME280;30157;55.512;37.764;2023-07-29T10:22:36;98949.78;;;16.15;97.15
44198;BME280;30157;55.512;37.764;2023-07-29T10:25:15;98900.63;;;15.79;97.10
44198;BME280;30157;55.512;37.764;2023-07-29T10:27:49;98919.72;;;15.83;97.48
44198;BME280;30157;55.512;37.764;2023-07-29T10:30:17;98916.97;;;15.86;97.53
44198;BME280;30157;55.512;37.764;2023-07-29T10:32:47;98953.53;;;16.09;97.06
44198;BME280;30157;55.512;37.764;2023-07-29T10:35:17;98862.59;;;15.50;97.14
44198;BME280;30157;55.512;37.764;2023-07-29T10:37:43;98947.75;;;16.01;97.52
44198;BME280;30157;55.512;37.764;2023-07-29T10:40:11;98940.63;;;16.05;98.13
44198;BME280;30157;55.512;37.764;2023-07-29T10:42:38;98954.97;;;16.17;98.55
44198;BME280;30157;55.512;37.764;2023-07-29T10:45:20;98954.06;;;16.18;97.28
44198;BME280;30157;55.512;37.764;2023-07-29T10:47:47;98938.94;;;16.04;96.89
44198;BME280;30157;55.512;37.764;2023-07-29T10:50:18;98830.72;;;15.40;96.75
44198;BME280;30157;55.512;37.764;2023-07-29T10:53:05;98855.53;;;15.52;97.11
44198;BME280;30157;55.512;37.764;2023-07-29T10:55:35;98944.81;;;16.09;97.60
44198;BME280;30157;55.512;37.764;2023-07-29T10:58:11;98954.44;;;16.08;97.76
44198;BME280;30157;55.512;37.764;2023-07-29T11:00:38;98934.53;;;16.04;98.52
44198;BME280;30157;55.512;37.764;2023-07-29T11:03:07;98950.47;;;16.20;97.88
44198;BME280;30157;55.512;37.764;2023-07-29T11:05:53;98955.03;;;16.15;96.65
44198;BME280;30157;55.512;37.764;2023-07-29T11:08:30;98848.72;;;15.48;97.23
44198;BME280;30157;55.512;37.764;2023-07-29T11:11:22;98964.22;;;16.03;96.43
44198;BME280;30157;55.512;37.764;2023-07-29T11:13:47;98968.56;;;16.04;97.34
44198;BME280;30157;55.512;37.764;2023-07-29T11:16:15;98975.25;;;16.11;97.37
44198;BME280;30157;55.512;37.764;2023-07-29T11:18:43;98910.25;;;15.78;97.00
44198;BME280;30157;55.512;37.764;2023-07-29T11:21:09;98958.44;;;16.17;97.04
44198;BME280;30157;55.512;37.764;2023-07-29T11:23:36;98984.94;;;16.30;96.57
44198;BME280;30157;55.512;37.764;2023-07-29T11:26:03;98983.91;;;16.34;96.77
44198;BME280;30157;55.512;37.764;2023-07-29T11:28:30;98988.00;;;16.41;96.29
44198;BME280;30157;55.512;37.764;2023-07-29T11:30:56;98975.13;;;16.35;95.48
44198;BME280;30157;55.512;37.764;2023-07-29T11:33:26;98964.34;;;16.22;95.87
44198;BME280;30157;55.512;37.764;2023-07-29T11:35:54;98933.88;;;15.99;96.62
44198;BME280;30157;55.512;37.764;2023-07-29T11:38:21;98964.53;;;16.18;96.42
44198;BME280;30157;55.512;37.764;2023-07-29T11:40:55;99001.47;;;16.32;95.97
44198;BME280;30157;55.512;37.764;2023-07-29T11:43:21;98966.53;;;16.11;95.89
44198;BME280;30157;55.512;37.764;2023-07-29T11:45:47;98944.94;;;16.06;96.02
44198;BME280;30157;55.512;37.764;2023-07-29T11:48:12;98998.63;;;16.37;95.69
44198;BME280;30157;55.512;37.764;2023-07-29T11:50:38;98993.28;;;16.40;94.98
44198;BME280;30157;55.512;37.764;2023-07-29T11:53:04;98984.47;;;16.42;95.64
44198;BME280;30157;55.512;37.764;2023-07-29T11:55:30;98862.41;;;15.76;95.91
44198;BME280;30157;55.512;37.764;2023-07-29T11:57:57;98973.13;;;16.42;94.82
44198;BME280;30157;55.512;37.764;2023-07-29T12:00:22;98994.53;;;16.52;95.58
44198;BME280;30157;55.512;37.764;2023-07-29T12:02:49;98970.19;;;16.50;95.03
44198;BME280;30157;55.512;37.764;2023-07-29T12:05:16;99001.09;;;16.62;94.85
44198;BME280;30157;55.512;37.764;2023-07-29T12:07:48;98953.28;;;16.36;94.42
44198;BME280;30157;55.512;37.764;2023-07-29T12:10:14;98903.00;;;16.07;95.00
44198;BME280;30157;55.512;37.764;2023-07-29T12:12:47;98959.56;;;16.53;95.14
44198;BME280;30157;55.512;37.764;2023-07-29T12:15:23;98973.75;;;16.68;94.04
44198;BME280;30157;55.512;37.764;2023-07-29T12:17:52;98998.59;;;16.79;93.58
44198;BME280;30157;55.512;37.764;2023-07-29T12:20:20;98971.50;;;16.60;93.38
44198;BME280;30157;55.512;37.764;2023-07-29T12:22:51;98730.25;;;15.04;92.98
44198;BME280;30157;55.512;37.764;2023-07-29T12:25:18;98995.00;;;16.61;93.67
44198;BME280;30157;55.512;37.764;2023-07-29T12:27:46;98985.91;;;16.50;93.78
44198;BME280;30157;55.512;37.764;2023-07-29T12:30:21;98968.19;;;16.34;94.27
44198;BME280;30157;55.512;37.764;2023-07-29T12:32:47;98884.59;;;15.88;94.65
44198;BME280;30157;55.512;37.764;2023-07-29T12:35:14;98951.56;;;16.35;94.45
44198;BME280;30157;55.512;37.764;2023-07-29T12:37:41;98930.94;;;16.27;94.46
44198;BME280;30157;55.512;37.764;2023-07-29T12:40:27;98978.69;;;16.55;94.50
44198;BME280;30157;55.512;37.764;2023-07-29T12:42:53;98889.44;;;15.98;94.06
44198;BME280;30157;55.512;37.764;2023-07-29T12:45:21;98780.16;;;15.41;94.79
44198;BME280;30157;55.512;37.764;2023-07-29T12:47:51;98979.66;;;16.73;94.20
44198;BME280;30157;55.512;37.764;2023-07-29T12:50:17;98979.53;;;16.76;94.20
44198;BME280;30157;55.512;37.764;2023-07-29T12:52:44;98941.16;;;16.54;93.28
44198;BME280;30157;55.512;37.764;2023-07-29T12:55:09;98982.75;;;16.62;93.47
44198;BME280;30157;55.512;37.764;2023-07-29T12:57:41;98983.78;;;16.58;93.87